Kushiro Airport
RJCK : now visible

Airfield :











YOU CAN JOIN US ON...

 
LOGIN :

Register | Disclaimer

   EN    FR    IT 

 









Legend :    VFR   Marginal VFR   IFR   Intensive IFR   Very Intensive IFR
Visi :
Ceiling :
>= 8 km
>= 3000ft
5 to 8 km
1000 to 3000 ft
1500m to 5 km
500 to 1000 ft
800 to 1500m
200 to 500 ft
< 800m
< 200 ft
Symbols :   Thunderstorms  Fog  Heavy snow  Heavy precipitations  Wind > 20 kt






- Airport Elevation : 327 ft
- IATA code : KUH


RJCK - Kushiro

CURRENT METAR :
  • 310600Z 20013KT 9999 FEW050 22/09 Q1012

EXPIRED METARs :
  • 310500Z 19010KT 9999 FEW050 21/10 Q1013
  • 310400Z 19013KT 9999 FEW030 22/09 Q1014

TAF TAF RJCK
Valid from the 31 at 06:00 until the 01 at 12:00 UTC


310510Z 3106/0112 21009KT 9999 FEW030
TEMPO 3117/0100 1500 BR FEW001 BKN003
TEMPO 0100/0103 FEW003 BKN006
BECMG 0103/0106 4000 BR FEW002 BKN004
TEMPO 0106/0112 0700 FG VV001
RJJJ FIR / Asia



MET'MAP, your aeronautical weather chart ! - Copyright ORBIFLY December 2007 - Disclaimer

ORBIFLY MET'MAP TEAM :

Programming & Development : Alexandra Zaïnal
Concept & original design : Baudouin d'Aumeries
Assistance for programming : Marc-Olivier Méhu
Technical & hardware support : Manuel Goepfert

Contact : metmap@orbifly.com




SOURCES & CREDITS :

   NOAA       Earth
Advisory